sensor_id;sensor_type;location;lat;lon;timestamp;pressure;altitude;pressure_sealevel;temperature;humidity
11001;BME280;5553;48.506;8.870;2022-12-11T00:01:08;95781.75;;;-4.48;100.00
11001;BME280;5553;48.506;8.870;2022-12-11T00:03:36;95776.84;;;-4.51;100.00
11001;BME280;5553;48.506;8.870;2022-12-11T00:06:06;95777.91;;;-4.54;100.00
11001;BME280;5553;48.506;8.870;2022-12-11T00:08:38;95775.56;;;-4.57;100.00
11001;BME280;5553;48.506;8.870;2022-12-11T00:11:10;95769.81;;;-4.60;100.00
11001;BME280;5553;48.506;8.870;2022-12-11T00:13:40;95765.13;;;-4.66;100.00
11001;BME280;5553;48.506;8.870;2022-12-11T00:16:08;95761.56;;;-5.10;100.00
11001;BME280;5553;48.506;8.870;2022-12-11T00:18:37;95767.19;;;-5.05;100.00
11001;BME280;5553;48.506;8.870;2022-12-11T00:21:11;95769.53;;;-5.02;100.00
11001;BME280;5553;48.506;8.870;2022-12-11T00:23:43;95773.75;;;-4.90;100.00
11001;BME280;5553;48.506;8.870;2022-12-11T00:26:13;95770.38;;;-4.79;100.00
11001;BME280;5553;48.506;8.870;2022-12-11T00:28:42;95773.09;;;-4.69;100.00
11001;BME280;5553;48.506;8.870;2022-12-11T00:31:13;95767.34;;;-4.73;100.00
11001;BME280;5553;48.506;8.870;2022-12-11T00:33:42;95773.06;;;-4.81;100.00
11001;BME280;5553;48.506;8.870;2022-12-11T00:36:14;95770.50;;;-4.81;100.00
11001;BME280;5553;48.506;8.870;2022-12-11T00:38:46;95771.91;;;-4.88;100.00
11001;BME280;5553;48.506;8.870;2022-12-11T00:41:15;95781.47;;;-4.90;100.00
11001;BME280;5553;48.506;8.870;2022-12-11T00:43:43;95783.81;;;-4.87;100.00
11001;BME280;5553;48.506;8.870;2022-12-11T00:46:11;95787.22;;;-4.86;100.00
11001;BME280;5553;48.506;8.870;2022-12-11T00:48:40;95796.31;;;-4.93;100.00
11001;BME280;5553;48.506;8.870;2022-12-11T00:51:09;95791.16;;;-5.05;100.00
11001;BME280;5553;48.506;8.870;2022-12-11T00:53:38;95793.13;;;-5.19;100.00
11001;BME280;5553;48.506;8.870;2022-12-11T00:56:14;95801.94;;;-5.35;100.00
11001;BME280;5553;48.506;8.870;2022-12-11T00:58:43;95800.63;;;-5.40;100.00
11001;BME280;5553;48.506;8.870;2022-12-11T01:01:14;95804.50;;;-5.35;100.00
11001;BME280;5553;48.506;8.870;2022-12-11T01:03:43;95807.63;;;-5.42;100.00
11001;BME280;5553;48.506;8.870;2022-12-11T01:06:13;95816.88;;;-5.40;100.00
11001;BME280;5553;48.506;8.870;2022-12-11T01:08:42;95816.03;;;-5.40;100.00
11001;BME280;5553;48.506;8.870;2022-12-11T01:11:15;95830.88;;;-5.44;100.00
11001;BME280;5553;48.506;8.870;2022-12-11T01:13:41;95839.75;;;-5.48;100.00
11001;BME280;5553;48.506;8.870;2022-12-11T01:16:12;95842.81;;;-5.43;100.00
11001;BME280;5553;48.506;8.870;2022-12-11T01:18:41;95849.38;;;-5.39;100.00
11001;BME280;5553;48.506;8.870;2022-12-11T01:21:10;95861.41;;;-5.39;100.00
11001;BME280;5553;48.506;8.870;2022-12-11T01:23:39;95869.94;;;-5.39;100.00
11001;BME280;5553;48.506;8.870;2022-12-11T01:26:09;95875.56;;;-5.34;100.00
11001;BME280;5553;48.506;8.870;2022-12-11T01:28:41;95879.00;;;-5.33;100.00
11001;BME280;5553;48.506;8.870;2022-12-11T01:31:11;95881.44;;;-5.32;100.00
11001;BME280;5553;48.506;8.870;2022-12-11T01:33:40;95882.09;;;-5.17;100.00
11001;BME280;5553;48.506;8.870;2022-12-11T01:36:10;95869.38;;;-5.07;100.00
11001;BME280;5553;48.506;8.870;2022-12-11T01:38:39;95876.00;;;-4.92;100.00
11001;BME280;5553;48.506;8.870;2022-12-11T01:41:08;95864.09;;;-4.82;100.00
11001;BME280;5553;48.506;8.870;2022-12-11T01:44:00;95882.59;;;-4.77;100.00
11001;BME280;5553;48.506;8.870;2022-12-11T01:46:30;95883.22;;;-4.62;100.00
11001;BME280;5553;48.506;8.870;2022-12-11T01:49:00;95894.81;;;-4.67;100.00
11001;BME280;5553;48.506;8.870;2022-12-11T01:51:32;95887.53;;;-4.62;100.00
11001;BME280;5553;48.506;8.870;2022-12-11T01:54:06;95887.59;;;-4.51;100.00
11001;BME280;5553;48.506;8.870;2022-12-11T01:56:37;95886.16;;;-4.55;100.00
11001;BME280;5553;48.506;8.870;2022-12-11T01:59:10;95888.84;;;-4.57;100.00
11001;BME280;5553;48.506;8.870;2022-12-11T02:01:41;95884.75;;;-4.59;100.00
11001;BME280;5553;48.506;8.870;2022-12-11T02:04:12;95884.53;;;-4.56;100.00
11001;BME280;5553;48.506;8.870;2022-12-11T02:06:43;95878.34;;;-4.54;100.00
11001;BME280;5553;48.506;8.870;2022-12-11T02:09:13;95881.22;;;-4.58;100.00
11001;BME280;5553;48.506;8.870;2022-12-11T02:11:52;95881.72;;;-4.53;100.00
11001;BME280;5553;48.506;8.870;2022-12-11T02:14:30;95877.38;;;-4.64;100.00
11001;BME280;5553;48.506;8.870;2022-12-11T02:17:05;95887.66;;;-4.64;100.00
11001;BME280;5553;48.506;8.870;2022-12-11T02:19:51;95886.56;;;-4.84;100.00
11001;BME280;5553;48.506;8.870;2022-12-11T02:22:27;95886.63;;;-4.96;100.00
11001;BME280;5553;48.506;8.870;2022-12-11T02:25:06;95879.47;;;-5.04;100.00
11001;BME280;5553;48.506;8.870;2022-12-11T02:27:40;95887.75;;;-5.12;100.00
11001;BME280;5553;48.506;8.870;2022-12-11T02:30:15;95886.59;;;-5.32;100.00
11001;BME280;5553;48.506;8.870;2022-12-11T02:32:46;95886.16;;;-5.26;100.00
11001;BME280;5553;48.506;8.870;2022-12-11T02:35:18;95881.44;;;-5.32;100.00
11001;BME280;5553;48.506;8.870;2022-12-11T02:37:53;95884.78;;;-5.42;100.00
11001;BME280;5553;48.506;8.870;2022-12-11T02:40:27;95879.41;;;-5.63;100.00
11001;BME280;5553;48.506;8.870;2022-12-11T02:43:02;95876.13;;;-5.78;100.00
11001;BME280;5553;48.506;8.870;2022-12-11T02:45:34;95869.81;;;-5.61;100.00
11001;BME280;5553;48.506;8.870;2022-12-11T02:48:07;95870.41;;;-5.58;100.00
11001;BME280;5553;48.506;8.870;2022-12-11T02:50:41;95875.53;;;-5.45;100.00
11001;BME280;5553;48.506;8.870;2022-12-11T02:53:12;95877.38;;;-5.47;100.00
11001;BME280;5553;48.506;8.870;2022-12-11T02:55:42;95868.56;;;-5.56;100.00
11001;BME280;5553;48.506;8.870;2022-12-11T02:58:13;95871.53;;;-5.49;100.00
11001;BME280;5553;48.506;8.870;2022-12-11T03:00:46;95878.13;;;-5.58;100.00
11001;BME280;5553;48.506;8.870;2022-12-11T03:03:14;95874.53;;;-5.55;100.00
11001;BME280;5553;48.506;8.870;2022-12-11T03:05:43;95868.59;;;-5.68;100.00
11001;BME280;5553;48.506;8.870;2022-12-11T03:08:12;95870.97;;;-5.65;100.00
11001;BME280;5553;48.506;8.870;2022-12-11T03:10:43;95870.03;;;-5.64;100.00
11001;BME280;5553;48.506;8.870;2022-12-11T03:13:12;95875.78;;;-5.61;100.00
11001;BME280;5553;48.506;8.870;2022-12-11T03:15:58;95875.16;;;-5.64;100.00
11001;BME280;5553;48.506;8.870;2022-12-11T03:18:35;95865.75;;;-5.77;100.00
11001;BME280;5553;48.506;8.870;2022-12-11T03:21:11;95860.22;;;-5.83;100.00
11001;BME280;5553;48.506;8.870;2022-12-11T03:23:47;95867.41;;;-5.76;100.00
11001;BME280;5553;48.506;8.870;2022-12-11T03:26:17;95865.16;;;-5.80;100.00
11001;BME280;5553;48.506;8.870;2022-12-11T03:28:50;95861.84;;;-5.82;100.00
11001;BME280;5553;48.506;8.870;2022-12-11T03:31:26;95866.59;;;-5.89;100.00
11001;BME280;5553;48.506;8.870;2022-12-11T03:33:59;95863.56;;;-5.94;100.00
11001;BME280;5553;48.506;8.870;2022-12-11T03:36:32;95877.09;;;-5.92;100.00
11001;BME280;5553;48.506;8.870;2022-12-11T03:39:06;95864.56;;;-5.84;100.00
11001;BME280;5553;48.506;8.870;2022-12-11T03:41:38;95860.19;;;-5.94;100.00
11001;BME280;5553;48.506;8.870;2022-12-11T03:44:08;95860.88;;;-5.92;100.00
11001;BME280;5553;48.506;8.870;2022-12-11T03:46:40;95867.13;;;-5.84;100.00
11001;BME280;5553;48.506;8.870;2022-12-11T03:49:15;95860.84;;;-5.80;100.00
11001;BME280;5553;48.506;8.870;2022-12-11T03:51:45;95860.66;;;-5.89;100.00
11001;BME280;5553;48.506;8.870;2022-12-11T03:54:15;95858.06;;;-5.89;100.00
11001;BME280;5553;48.506;8.870;2022-12-11T03:56:45;95859.41;;;-5.84;100.00
11001;BME280;5553;48.506;8.870;2022-12-11T03:59:15;95860.63;;;-5.77;100.00
11001;BME280;5553;48.506;8.870;2022-12-11T04:01:46;95852.09;;;-5.77;100.00
11001;BME280;5553;48.506;8.870;2022-12-11T04:04:15;95847.22;;;-5.69;100.00
11001;BME280;5553;48.506;8.870;2022-12-11T04:06:43;95847.44;;;-5.72;100.00
11001;BME280;5553;48.506;8.870;2022-12-11T04:09:12;95838.19;;;-5.75;100.00
11001;BME280;5553;48.506;8.870;2022-12-11T04:11:40;95839.88;;;-5.86;100.00
11001;BME280;5553;48.506;8.870;2022-12-11T04:14:10;95831.34;;;-5.87;100.00
11001;BME280;5553;48.506;8.870;2022-12-11T04:16:55;95830.63;;;-5.89;100.00
11001;BME280;5553;48.506;8.870;2022-12-11T04:19:24;95836.72;;;-5.90;100.00
11001;BME280;5553;48.506;8.870;2022-12-11T04:22:05;95846.25;;;-5.92;100.00
11001;BME280;5553;48.506;8.870;2022-12-11T04:24:52;95848.19;;;-5.83;100.00
11001;BME280;5553;48.506;8.870;2022-12-11T04:27:21;95835.94;;;-5.79;100.00
11001;BME280;5553;48.506;8.870;2022-12-11T04:30:02;95842.94;;;-5.81;100.00
11001;BME280;5553;48.506;8.870;2022-12-11T04:32:33;95838.72;;;-5.82;100.00
11001;BME280;5553;48.506;8.870;2022-12-11T04:35:02;95834.75;;;-5.86;100.00
11001;BME280;5553;48.506;8.870;2022-12-11T04:37:31;95837.19;;;-5.85;100.00
11001;BME280;5553;48.506;8.870;2022-12-11T04:39:59;95842.66;;;-5.89;100.00
11001;BME280;5553;48.506;8.870;2022-12-11T04:42:27;95835.00;;;-6.02;100.00
11001;BME280;5553;48.506;8.870;2022-12-11T04:44:56;95833.00;;;-6.23;100.00
11001;BME280;5553;48.506;8.870;2022-12-11T15:48:41;95676.78;;;-2.35;100.00
11001;BME280;5553;48.506;8.870;2022-12-11T15:51:10;95665.50;;;-2.34;100.00
11001;BME280;5553;48.506;8.870;2022-12-11T15:53:38;95668.22;;;-2.35;100.00
11001;BME280;5553;48.506;8.870;2022-12-11T15:56:33;95670.00;;;-2.26;100.00
11001;BME280;5553;48.506;8.870;2022-12-11T15:59:03;95667.66;;;-2.29;100.00
11001;BME280;5553;48.506;8.870;2022-12-11T16:01:33;95674.06;;;-2.33;100.00
11001;BME280;5553;48.506;8.870;2022-12-11T16:04:04;95675.13;;;-2.36;100.00
11001;BME280;5553;48.506;8.870;2022-12-11T16:06:32;95681.94;;;-2.35;100.00
11001;BME280;5553;48.506;8.870;2022-12-11T16:09:01;95672.94;;;-2.41;100.00
11001;BME280;5553;48.506;8.870;2022-12-11T16:11:30;95675.97;;;-2.35;100.00
11001;BME280;5553;48.506;8.870;2022-12-11T16:13:58;95668.34;;;-2.37;100.00
11001;BME280;5553;48.506;8.870;2022-12-11T16:16:28;95657.88;;;-2.35;100.00
11001;BME280;5553;48.506;8.870;2022-12-11T16:18:57;95641.94;;;-2.41;100.00
11001;BME280;5553;48.506;8.870;2022-12-11T16:21:28;95643.56;;;-2.40;100.00
11001;BME280;5553;48.506;8.870;2022-12-11T16:23:56;95643.47;;;-2.38;100.00
11001;BME280;5553;48.506;8.870;2022-12-11T16:26:24;95645.75;;;-2.45;100.00
11001;BME280;5553;48.506;8.870;2022-12-11T16:28:53;95644.78;;;-2.44;100.00
11001;BME280;5553;48.506;8.870;2022-12-11T16:31:21;95651.63;;;-2.43;100.00
11001;BME280;5553;48.506;8.870;2022-12-11T16:33:49;95661.81;;;-2.41;100.00
11001;BME280;5553;48.506;8.870;2022-12-11T16:36:18;95651.44;;;-2.51;100.00
11001;BME280;5553;48.506;8.870;2022-12-11T16:38:49;95662.22;;;-2.46;100.00
11001;BME280;5553;48.506;8.870;2022-12-11T16:41:18;95655.13;;;-2.44;100.00
11001;BME280;5553;48.506;8.870;2022-12-11T16:43:47;95655.13;;;-2.44;100.00
11001;BME280;5553;48.506;8.870;2022-12-11T16:46:16;95649.03;;;-2.43;100.00
11001;BME280;5553;48.506;8.870;2022-12-11T16:48:45;95640.16;;;-2.50;100.00
11001;BME280;5553;48.506;8.870;2022-12-11T16:51:13;95650.22;;;-2.47;100.00
11001;BME280;5553;48.506;8.870;2022-12-11T16:53:42;95637.97;;;-2.54;100.00
11001;BME280;5553;48.506;8.870;2022-12-11T16:56:13;95644.22;;;-2.57;100.00
11001;BME280;5553;48.506;8.870;2022-12-11T16:58:41;95636.72;;;-2.60;100.00
11001;BME280;5553;48.506;8.870;2022-12-11T17:01:12;95635.88;;;-2.70;100.00
11001;BME280;5553;48.506;8.870;2022-12-11T17:03:42;95637.78;;;-2.72;100.00
11001;BME280;5553;48.506;8.870;2022-12-11T17:06:12;95633.28;;;-2.70;100.00
11001;BME280;5553;48.506;8.870;2022-12-11T17:08:41;95621.84;;;-2.77;100.00
11001;BME280;5553;48.506;8.870;2022-12-11T17:11:14;95629.03;;;-2.81;100.00
11001;BME280;5553;48.506;8.870;2022-12-11T17:13:43;95630.66;;;-2.90;100.00
11001;BME280;5553;48.506;8.870;2022-12-11T17:16:14;95638.25;;;-2.88;100.00
11001;BME280;5553;48.506;8.870;2022-12-11T17:18:42;95636.06;;;-2.93;100.00
11001;BME280;5553;48.506;8.870;2022-12-11T17:21:12;95642.31;;;-2.95;100.00
11001;BME280;5553;48.506;8.870;2022-12-11T17:23:42;95643.38;;;-2.98;100.00
11001;BME280;5553;48.506;8.870;2022-12-11T17:26:13;95644.34;;;-2.99;100.00
11001;BME280;5553;48.506;8.870;2022-12-11T17:28:42;95637.91;;;-3.04;100.00
11001;BME280;5553;48.506;8.870;2022-12-11T17:31:14;95635.72;;;-3.09;100.00
11001;BME280;5553;48.506;8.870;2022-12-11T17:33:43;95637.09;;;-3.05;100.00
11001;BME280;5553;48.506;8.870;2022-12-11T17:36:14;95634.16;;;-3.00;100.00
11001;BME280;5553;48.506;8.870;2022-12-11T17:38:43;95634.09;;;-3.10;100.00
11001;BME280;5553;48.506;8.870;2022-12-11T17:41:15;95644.75;;;-3.24;100.00
11001;BME280;5553;48.506;8.870;2022-12-11T17:43:45;95640.53;;;-3.46;100.00
11001;BME280;5553;48.506;8.870;2022-12-11T17:46:13;95643.69;;;-3.43;100.00
11001;BME280;5553;48.506;8.870;2022-12-11T17:48:42;95646.97;;;-3.41;100.00
11001;BME280;5553;48.506;8.870;2022-12-11T17:51:12;95655.69;;;-3.53;100.00
11001;BME280;5553;48.506;8.870;2022-12-11T17:53:45;95653.50;;;-3.78;100.00
11001;BME280;5553;48.506;8.870;2022-12-11T17:56:16;95649.72;;;-3.74;100.00
11001;BME280;5553;48.506;8.870;2022-12-11T17:58:44;95649.59;;;-3.73;100.00
11001;BME280;5553;48.506;8.870;2022-12-11T18:01:13;95651.00;;;-3.69;100.00
11001;BME280;5553;48.506;8.870;2022-12-11T18:03:41;95659.47;;;-3.78;100.00
11001;BME280;5553;48.506;8.870;2022-12-11T18:06:12;95661.41;;;-3.91;100.00
11001;BME280;5553;48.506;8.870;2022-12-11T18:08:42;95673.72;;;-3.95;100.00
11001;BME280;5553;48.506;8.870;2022-12-11T18:11:16;95672.44;;;-4.00;100.00
11001;BME280;5553;48.506;8.870;2022-12-11T18:13:46;95664.59;;;-3.99;100.00
11001;BME280;5553;48.506;8.870;2022-12-11T18:16:17;95662.34;;;-3.92;100.00
11001;BME280;5553;48.506;8.870;2022-12-11T18:18:47;95665.78;;;-4.03;100.00
11001;BME280;5553;48.506;8.870;2022-12-11T18:21:17;95673.53;;;-4.14;100.00
11001;BME280;5553;48.506;8.870;2022-12-11T18:23:46;95662.31;;;-4.24;100.00
11001;BME280;5553;48.506;8.870;2022-12-11T18:26:18;95661.63;;;-4.38;100.00
11001;BME280;5553;48.506;8.870;2022-12-11T18:28:47;95660.94;;;-4.40;100.00
11001;BME280;5553;48.506;8.870;2022-12-11T18:31:18;95666.22;;;-4.41;100.00
11001;BME280;5553;48.506;8.870;2022-12-11T18:33:47;95668.94;;;-4.54;100.00
11001;BME280;5553;48.506;8.870;2022-12-11T18:36:17;95663.06;;;-4.56;100.00
11001;BME280;5553;48.506;8.870;2022-12-11T18:38:46;95664.25;;;-4.60;100.00
11001;BME280;5553;48.506;8.870;2022-12-11T18:41:18;95665.44;;;-4.64;100.00
11001;BME280;5553;48.506;8.870;2022-12-11T18:43:47;95666.50;;;-4.67;100.00
11001;BME280;5553;48.506;8.870;2022-12-11T18:46:19;95668.59;;;-4.72;100.00
11001;BME280;5553;48.506;8.870;2022-12-11T18:48:47;95666.84;;;-4.83;100.00
11001;BME280;5553;48.506;8.870;2022-12-11T18:51:18;95670.34;;;-4.84;100.00
11001;BME280;5553;48.506;8.870;2022-12-11T18:53:48;95681.25;;;-4.91;100.00
11001;BME280;5553;48.506;8.870;2022-12-11T18:56:19;95675.13;;;-4.79;100.00
11001;BME280;5553;48.506;8.870;2022-12-11T18:58:48;95677.72;;;-4.79;100.00
11001;BME280;5553;48.506;8.870;2022-12-11T19:01:18;95679.25;;;-4.88;100.00
11001;BME280;5553;48.506;8.870;2022-12-11T19:03:47;95688.47;;;-4.96;100.00
11001;BME280;5553;48.506;8.870;2022-12-11T19:06:17;95687.31;;;-5.04;100.00
11001;BME280;5553;48.506;8.870;2022-12-11T19:08:46;95692.94;;;-4.98;100.00
11001;BME280;5553;48.506;8.870;2022-12-11T19:11:16;95687.41;;;-5.16;100.00
11001;BME280;5553;48.506;8.870;2022-12-11T19:13:47;95683.19;;;-5.40;100.00
11001;BME280;5553;48.506;8.870;2022-12-11T19:16:17;95694.38;;;-5.41;100.00
11001;BME280;5553;48.506;8.870;2022-12-11T19:18:46;95694.41;;;-5.30;100.00
11001;BME280;5553;48.506;8.870;2022-12-11T19:21:15;95694.88;;;-5.25;100.00
11001;BME280;5553;48.506;8.870;2022-12-11T19:23:45;95694.88;;;-5.25;100.00
11001;BME280;5553;48.506;8.870;2022-12-11T19:26:16;95706.13;;;-5.26;100.00
11001;BME280;5553;48.506;8.870;2022-12-11T19:28:48;95696.94;;;-5.41;100.00
11001;BME280;5553;48.506;8.870;2022-12-11T19:31:21;95705.22;;;-5.49;100.00
11001;BME280;5553;48.506;8.870;2022-12-11T19:33:50;95703.69;;;-5.51;100.00
11001;BME280;5553;48.506;8.870;2022-12-11T19:36:20;95702.53;;;-5.47;100.00
11001;BME280;5553;48.506;8.870;2022-12-11T19:38:49;95710.97;;;-5.45;100.00
11001;BME280;5553;48.506;8.870;2022-12-11T19:41:20;95707.81;;;-5.49;100.00
11001;BME280;5553;48.506;8.870;2022-12-11T19:43:52;95708.63;;;-5.48;100.00
11001;BME280;5553;48.506;8.870;2022-12-11T19:46:22;95712.59;;;-5.44;100.00
11001;BME280;5553;48.506;8.870;2022-12-11T19:48:52;95712.34;;;-5.52;100.00
11001;BME280;5553;48.506;8.870;2022-12-11T19:51:23;95709.09;;;-5.78;100.00
11001;BME280;5553;48.506;8.870;2022-12-11T19:53:52;95707.41;;;-5.66;100.00
11001;BME280;5553;48.506;8.870;2022-12-11T19:56:22;95721.84;;;-5.77;100.00
11001;BME280;5553;48.506;8.870;2022-12-11T19:58:53;95719.59;;;-5.81;100.00
11001;BME280;5553;48.506;8.870;2022-12-11T20:01:23;95707.97;;;-5.74;100.00
11001;BME280;5553;48.506;8.870;2022-12-11T20:03:56;95709.56;;;-5.84;100.00
11001;BME280;5553;48.506;8.870;2022-12-11T20:06:26;95714.13;;;-5.77;100.00
11001;BME280;5553;48.506;8.870;2022-12-11T20:08:55;95720.22;;;-5.78;100.00
11001;BME280;5553;48.506;8.870;2022-12-11T20:11:23;95713.84;;;-5.85;100.00
11001;BME280;5553;48.506;8.870;2022-12-11T20:13:54;95719.19;;;-5.99;100.00
11001;BME280;5553;48.506;8.870;2022-12-11T20:16:23;95718.75;;;-5.93;100.00
11001;BME280;5553;48.506;8.870;2022-12-11T20:18:52;95721.06;;;-6.25;100.00
11001;BME280;5553;48.506;8.870;2022-12-11T20:21:22;95733.56;;;-6.21;100.00
11001;BME280;5553;48.506;8.870;2022-12-11T20:23:51;95724.31;;;-6.23;100.00
11001;BME280;5553;48.506;8.870;2022-12-11T20:26:22;95722.34;;;-6.20;100.00
11001;BME280;5553;48.506;8.870;2022-12-11T20:28:54;95726.47;;;-6.17;100.00
11001;BME280;5553;48.506;8.870;2022-12-11T20:31:24;95730.22;;;-6.10;100.00
11001;BME280;5553;48.506;8.870;2022-12-11T20:33:54;95736.69;;;-6.04;100.00
11001;BME280;5553;48.506;8.870;2022-12-11T20:36:24;95734.13;;;-6.04;100.00
11001;BME280;5553;48.506;8.870;2022-12-11T20:38:53;95728.06;;;-6.03;100.00
11001;BME280;5553;48.506;8.870;2022-12-11T20:41:23;95733.84;;;-6.12;100.00
11001;BME280;5553;48.506;8.870;2022-12-11T20:43:55;95728.22;;;-6.17;100.00
11001;BME280;5553;48.506;8.870;2022-12-11T20:46:24;95725.66;;;-6.17;100.00
11001;BME280;5553;48.506;8.870;2022-12-11T20:48:55;95733.22;;;-6.16;100.00
11001;BME280;5553;48.506;8.870;2022-12-11T20:51:25;95729.94;;;-6.42;100.00
11001;BME280;5553;48.506;8.870;2022-12-11T20:53:54;95735.28;;;-6.45;100.00
11001;BME280;5553;48.506;8.870;2022-12-11T20:56:27;95737.50;;;-6.40;100.00
11001;BME280;5553;48.506;8.870;2022-12-11T20:58:59;95738.75;;;-6.46;100.00
11001;BME280;5553;48.506;8.870;2022-12-11T21:01:29;95738.53;;;-6.43;100.00
11001;BME280;5553;48.506;8.870;2022-12-11T21:03:59;95738.41;;;-6.65;100.00
11001;BME280;5553;48.506;8.870;2022-12-11T21:06:29;95732.94;;;-6.61;100.00
11001;BME280;5553;48.506;8.870;2022-12-11T21:08:58;95735.72;;;-6.64;100.00
11001;BME280;5553;48.506;8.870;2022-12-11T21:11:27;95732.25;;;-6.76;100.00
11001;BME280;5553;48.506;8.870;2022-12-11T21:13:56;95728.53;;;-6.72;100.00
11001;BME280;5553;48.506;8.870;2022-12-11T21:16:27;95736.03;;;-6.81;100.00
11001;BME280;5553;48.506;8.870;2022-12-11T21:18:56;95731.03;;;-6.83;100.00
11001;BME280;5553;48.506;8.870;2022-12-11T21:21:26;95727.13;;;-6.76;100.00
11001;BME280;5553;48.506;8.870;2022-12-11T21:23:54;95735.09;;;-6.80;100.00
11001;BME280;5553;48.506;8.870;2022-12-11T21:26:22;95742.91;;;-6.82;100.00
11001;BME280;5553;48.506;8.870;2022-12-11T21:28:51;95740.47;;;-6.83;100.00
11001;BME280;5553;48.506;8.870;2022-12-11T21:31:20;95737.78;;;-6.95;100.00
11001;BME280;5553;48.506;8.870;2022-12-11T21:33:51;95738.31;;;-6.89;100.00
11001;BME280;5553;48.506;8.870;2022-12-11T21:36:19;95736.88;;;-6.94;100.00
11001;BME280;5553;48.506;8.870;2022-12-11T21:38:48;95738.09;;;-6.99;100.00
11001;BME280;5553;48.506;8.870;2022-12-11T21:41:19;95740.88;;;-7.02;100.00
11001;BME280;5553;48.506;8.870;2022-12-11T21:43:50;95742.50;;;-7.01;100.00
11001;BME280;5553;48.506;8.870;2022-12-11T21:46:20;95741.91;;;-7.18;100.00
11001;BME280;5553;48.506;8.870;2022-12-11T21:48:52;95746.91;;;-7.16;100.00
11001;BME280;5553;48.506;8.870;2022-12-11T21:51:22;95744.69;;;-7.21;100.00
11001;BME280;5553;48.506;8.870;2022-12-11T21:53:51;95742.53;;;-7.14;100.00
11001;BME280;5553;48.506;8.870;2022-12-11T21:56:21;95753.16;;;-7.33;100.00
11001;BME280;5553;48.506;8.870;2022-12-11T21:58:52;95753.66;;;-7.41;100.00
11001;BME280;5553;48.506;8.870;2022-12-11T22:01:23;95751.13;;;-7.28;100.00
11001;BME280;5553;48.506;8.870;2022-12-11T22:03:56;95755.22;;;-7.12;100.00
11001;BME280;5553;48.506;8.870;2022-12-11T22:06:25;95755.75;;;-7.07;100.00
11001;BME280;5553;48.506;8.870;2022-12-11T22:08:53;95752.34;;;-6.95;100.00
11001;BME280;5553;48.506;8.870;2022-12-11T22:11:24;95760.78;;;-7.06;100.00
11001;BME280;5553;48.506;8.870;2022-12-11T22:13:53;95765.91;;;-6.93;100.00
11001;BME280;5553;48.506;8.870;2022-12-11T22:16:22;95760.78;;;-6.93;100.00
11001;BME280;5553;48.506;8.870;2022-12-11T22:18:50;95762.41;;;-6.92;100.00
11001;BME280;5553;48.506;8.870;2022-12-11T22:21:21;95761.81;;;-6.83;100.00
11001;BME280;5553;48.506;8.870;2022-12-11T22:23:50;95765.19;;;-6.70;100.00
11001;BME280;5553;48.506;8.870;2022-12-11T22:26:19;95765.50;;;-6.74;100.00
11001;BME280;5553;48.506;8.870;2022-12-11T22:28:49;95765.59;;;-6.76;100.00
11001;BME280;5553;48.506;8.870;2022-12-11T22:31:19;95771.13;;;-6.82;100.00
11001;BME280;5553;48.506;8.870;2022-12-11T22:33:49;95771.44;;;-6.74;100.00
11001;BME280;5553;48.506;8.870;2022-12-11T22:36:21;95772.78;;;-6.81;100.00
11001;BME280;5553;48.506;8.870;2022-12-11T22:38:50;95771.25;;;-6.83;100.00
11001;BME280;5553;48.506;8.870;2022-12-11T22:41:22;95773.78;;;-6.71;100.00
11001;BME280;5553;48.506;8.870;2022-12-11T22:43:51;95774.72;;;-6.72;100.00
11001;BME280;5553;48.506;8.870;2022-12-11T22:46:21;95773.38;;;-6.64;100.00
11001;BME280;5553;48.506;8.870;2022-12-11T22:48:50;95771.34;;;-6.59;100.00
11001;BME280;5553;48.506;8.870;2022-12-11T22:51:22;95775.09;;;-6.39;100.00
11001;BME280;5553;48.506;8.870;2022-12-11T22:53:50;95775.94;;;-6.39;100.00
11001;BME280;5553;48.506;8.870;2022-12-11T22:56:19;95783.84;;;-6.42;100.00
11001;BME280;5553;48.506;8.870;2022-12-11T22:58:47;95782.38;;;-6.46;100.00
11001;BME280;5553;48.506;8.870;2022-12-11T23:01:18;95772.44;;;-6.51;100.00
11001;BME280;5553;48.506;8.870;2022-12-11T23:03:47;95781.28;;;-6.55;100.00
11001;BME280;5553;48.506;8.870;2022-12-11T23:06:19;95775.34;;;-6.55;100.00
11001;BME280;5553;48.506;8.870;2022-12-11T23:08:52;95777.03;;;-6.43;100.00
11001;BME280;5553;48.506;8.870;2022-12-11T23:11:23;95778.19;;;-6.34;100.00
11001;BME280;5553;48.506;8.870;2022-12-11T23:13:53;95775.50;;;-6.33;100.00
11001;BME280;5553;48.506;8.870;2022-12-11T23:16:23;95784.00;;;-6.20;100.00
11001;BME280;5553;48.506;8.870;2022-12-11T23:18:52;95779.91;;;-6.22;100.00
11001;BME280;5553;48.506;8.870;2022-12-11T23:21:22;95783.19;;;-6.20;100.00
11001;BME280;5553;48.506;8.870;2022-12-11T23:23:53;95783.91;;;-6.18;100.00
11001;BME280;5553;48.506;8.870;2022-12-11T23:26:22;95786.53;;;-6.07;100.00
11001;BME280;5553;48.506;8.870;2022-12-11T23:28:52;95780.28;;;-6.15;100.00
11001;BME280;5553;48.506;8.870;2022-12-11T23:31:21;95786.31;;;-6.04;100.00
11001;BME280;5553;48.506;8.870;2022-12-11T23:33:50;95787.13;;;-6.03;100.00
11001;BME280;5553;48.506;8.870;2022-12-11T23:36:18;95790.94;;;-5.85;100.00
11001;BME280;5553;48.506;8.870;2022-12-11T23:38:47;95797.31;;;-5.78;100.00
11001;BME280;5553;48.506;8.870;2022-12-11T23:41:18;95792.44;;;-5.69;100.00
11001;BME280;5553;48.506;8.870;2022-12-11T23:43:46;95798.56;;;-5.59;100.00
11001;BME280;5553;48.506;8.870;2022-12-11T23:46:18;95797.25;;;-5.65;100.00
11001;BME280;5553;48.506;8.870;2022-12-11T23:48:47;95797.13;;;-5.87;100.00
11001;BME280;5553;48.506;8.870;2022-12-11T23:51:17;95790.81;;;-5.70;100.00
11001;BME280;5553;48.506;8.870;2022-12-11T23:53:46;95794.56;;;-5.63;100.00
11001;BME280;5553;48.506;8.870;2022-12-11T23:56:20;95793.16;;;-5.67;100.00
11001;BME280;5553;48.506;8.870;2022-12-11T23:58:48;95785.75;;;-5.72;100.00
